createdAt,value
2022-11-14T00:00:59.696Z,5.20
2022-11-14T00:03:26.119Z,5.03
2022-11-14T00:05:52.558Z,5.07
2022-11-14T00:08:25.270Z,4.63
2022-11-14T00:10:52.141Z,4.87
2022-11-14T00:13:21.016Z,5.00
2022-11-14T00:15:54.246Z,6.07
2022-11-14T00:18:21.042Z,6.10
2022-11-14T00:20:49.050Z,6.03
2022-11-14T00:23:15.534Z,5.50
2022-11-14T00:25:43.105Z,6.00
2022-11-14T00:28:09.546Z,5.83
2022-11-14T00:30:35.948Z,5.60
2022-11-14T00:33:02.359Z,5.50
2022-11-14T00:35:28.768Z,5.50
2022-11-14T00:37:55.142Z,5.33
2022-11-14T00:40:21.544Z,5.00
2022-11-14T00:42:47.941Z,4.60
2022-11-14T00:45:14.468Z,3.97
2022-11-14T00:47:40.878Z,4.00
2022-11-14T00:50:07.675Z,4.70
2022-11-14T00:52:34.148Z,4.17
2022-11-14T00:55:00.656Z,3.73
2022-11-14T00:57:27.087Z,4.10
2022-11-14T00:59:55.680Z,3.43
2022-11-14T01:02:22.602Z,4.03
2022-11-14T01:04:49.057Z,3.70
2022-11-14T01:07:15.507Z,4.57
2022-11-14T01:09:41.972Z,4.07
2022-11-14T01:12:08.470Z,5.40
2022-11-14T01:14:34.934Z,4.40
2022-11-14T01:17:01.322Z,4.33
2022-11-14T01:19:27.787Z,4.47
2022-11-14T01:21:54.174Z,4.00
2022-11-14T01:24:20.591Z,4.43
2022-11-14T01:26:46.990Z,4.20
2022-11-14T01:29:13.538Z,5.10
2022-11-14T01:31:39.969Z,4.40
2022-11-14T01:34:06.382Z,4.13
2022-11-14T01:36:32.832Z,3.90
2022-11-14T01:38:59.226Z,4.20
2022-11-14T01:41:25.689Z,3.63
2022-11-14T01:43:52.154Z,3.73
2022-11-14T01:46:32.847Z,3.10
2022-11-14T01:49:22.621Z,3.60
2022-11-14T01:51:54.560Z,3.93
2022-11-14T01:54:30.558Z,4.30
2022-11-14T01:57:00.046Z,4.70
2022-11-14T01:59:34.295Z,3.80
2022-11-14T02:02:06.276Z,4.33
2022-11-14T02:04:38.028Z,3.50
2022-11-14T02:07:06.297Z,3.60
2022-11-14T02:09:37.289Z,3.47
2022-11-14T02:12:07.103Z,3.43
2022-11-14T02:14:35.716Z,3.53
2022-11-14T02:17:27.803Z,3.27
2022-11-14T02:19:54.756Z,3.40
2022-11-14T02:22:21.621Z,3.50
2022-11-14T02:24:48.027Z,3.50
2022-11-14T02:27:15.243Z,3.13
2022-11-14T02:29:42.725Z,3.27
2022-11-14T02:32:10.911Z,3.67
2022-11-14T02:34:38.641Z,3.47
2022-11-14T02:37:05.369Z,3.30
2022-11-14T02:39:31.811Z,3.43
2022-11-14T02:41:58.206Z,3.63
2022-11-14T02:44:24.664Z,3.20
2022-11-14T02:46:51.165Z,3.50
2022-11-14T02:49:17.723Z,4.23
2022-11-14T02:51:44.171Z,3.57
2022-11-14T02:54:10.610Z,4.40
2022-11-14T02:56:37.013Z,4.57
2022-11-14T02:59:04.301Z,3.53
2022-11-14T03:01:30.883Z,4.03
2022-11-14T03:03:57.337Z,3.33
2022-11-14T03:06:23.744Z,3.70
2022-11-14T03:08:50.153Z,3.70
2022-11-14T03:11:16.568Z,3.40
2022-11-14T03:13:43.042Z,2.70
2022-11-14T03:16:12.048Z,3.67
2022-11-14T03:18:38.598Z,3.47
2022-11-14T03:21:17.031Z,3.50
2022-11-14T03:23:43.462Z,3.93
2022-11-14T03:26:11.718Z,4.07
2022-11-14T03:28:39.162Z,3.63
2022-11-14T03:31:06.817Z,3.70
2022-11-14T03:33:34.892Z,3.50
2022-11-14T03:36:01.795Z,4.00
2022-11-14T03:38:29.647Z,3.00
2022-11-14T03:40:59.148Z,3.40
2022-11-14T03:43:26.445Z,2.40
2022-11-14T03:45:52.877Z,2.40
2022-11-14T03:48:19.278Z,3.20
2022-11-14T03:50:45.732Z,2.90
2022-11-14T03:53:12.167Z,2.83
2022-11-14T03:55:39.302Z,3.50
2022-11-14T03:58:05.852Z,3.20
2022-11-14T04:00:32.484Z,3.07
2022-11-14T04:02:59.000Z,2.90
2022-11-14T04:05:25.554Z,3.03
2022-11-14T04:07:52.392Z,3.30
2022-11-14T04:10:18.854Z,3.00
2022-11-14T04:12:52.527Z,3.57
2022-11-14T04:15:19.791Z,3.00
2022-11-14T04:17:46.822Z,3.77
2022-11-14T04:20:15.372Z,3.37
2022-11-14T04:22:41.892Z,3.00
2022-11-14T04:25:09.546Z,3.80
2022-11-14T04:27:36.187Z,3.27
2022-11-14T04:30:03.360Z,3.10
2022-11-14T04:32:30.039Z,3.37
2022-11-14T04:34:56.436Z,3.20
2022-11-14T04:37:22.944Z,3.47
2022-11-14T04:39:49.409Z,3.40
2022-11-14T04:42:15.825Z,4.03
2022-11-14T04:44:42.291Z,3.00
2022-11-14T04:47:08.803Z,3.17
2022-11-14T04:49:35.464Z,3.40
2022-11-14T04:52:01.956Z,3.10
2022-11-14T04:54:28.412Z,3.30
2022-11-14T04:56:54.812Z,3.43
2022-11-14T04:59:21.443Z,3.67
2022-11-14T05:01:48.008Z,3.73
2022-11-14T05:04:14.815Z,4.23
2022-11-14T05:06:41.415Z,4.50
2022-11-14T05:09:08.439Z,4.30
2022-11-14T05:11:34.889Z,4.60
2022-11-14T05:14:01.289Z,4.57
2022-11-14T05:16:27.685Z,4.60
2022-11-14T05:18:54.994Z,4.77
2022-11-14T05:21:21.555Z,5.50
2022-11-14T05:23:47.985Z,5.50
2022-11-14T05:26:16.361Z,5.23
2022-11-14T05:28:43.011Z,5.63
2022-11-14T05:31:17.813Z,5.50
2022-11-14T05:33:45.662Z,5.77
2022-11-14T05:36:14.431Z,5.33
2022-11-14T05:38:41.593Z,6.10
2022-11-14T05:41:15.876Z,5.73
2022-11-14T05:43:42.876Z,5.87
2022-11-14T05:46:12.294Z,8.40
2022-11-14T05:48:39.639Z,6.57
2022-11-14T05:51:07.164Z,6.20
2022-11-14T05:53:34.643Z,5.93
2022-11-14T05:56:05.874Z,6.90
2022-11-14T05:58:33.674Z,7.10
2022-11-14T06:01:05.683Z,5.87
2022-11-14T06:03:36.962Z,6.53
2022-11-14T06:06:05.988Z,6.60
2022-11-14T06:08:33.306Z,6.37
2022-11-14T06:11:07.805Z,6.80
2022-11-14T06:13:34.985Z,6.60
2022-11-14T06:16:10.876Z,7.37
2022-11-14T06:18:38.001Z,6.67
2022-11-14T06:21:11.637Z,6.93
2022-11-14T06:23:38.087Z,7.10
2022-11-14T06:26:06.690Z,7.00
2022-11-14T06:28:33.538Z,7.00
2022-11-14T06:31:01.433Z,7.97
2022-11-14T06:33:29.386Z,8.03
2022-11-14T06:36:05.365Z,8.50
2022-11-14T06:38:33.326Z,10.90
2022-11-14T06:41:08.341Z,11.13
2022-11-14T06:43:46.272Z,12.40
2022-11-14T06:46:15.474Z,11.10
2022-11-14T06:48:43.107Z,9.60
2022-11-14T06:51:11.380Z,9.90
2022-11-14T06:53:38.341Z,8.60
2022-11-14T06:56:20.209Z,8.23
2022-11-14T06:58:49.059Z,8.10
2022-11-14T07:01:24.122Z,8.60
2022-11-14T07:03:50.697Z,14.40
2022-11-14T07:06:26.303Z,9.37
2022-11-14T07:08:54.151Z,7.73
2022-11-14T07:11:29.375Z,7.30
2022-11-14T07:13:58.428Z,8.10
2022-11-14T07:16:29.419Z,7.67
2022-11-14T07:18:59.660Z,8.37
2022-11-14T07:21:28.227Z,8.50
2022-11-14T07:23:55.017Z,7.53
2022-11-14T07:26:21.449Z,8.73
2022-11-14T07:28:52.230Z,8.23
2022-11-14T07:31:20.631Z,8.17
2022-11-14T07:33:47.585Z,9.13
2022-11-14T07:36:15.481Z,8.10
2022-11-14T07:38:42.383Z,8.33
2022-11-14T07:41:12.679Z,9.77
2022-11-14T07:43:39.768Z,17.80
2022-11-14T07:46:10.175Z,11.87
2022-11-14T07:48:36.628Z,10.37
2022-11-14T07:51:05.649Z,11.40
2022-11-14T07:53:33.268Z,13.27
2022-11-14T07:56:05.962Z,13.40
2022-11-14T07:58:34.730Z,13.63
2022-11-14T08:01:02.284Z,13.83
2022-11-14T08:03:29.053Z,13.63
2022-11-14T08:06:08.027Z,11.93
2022-11-14T08:08:34.938Z,13.47
2022-11-14T08:11:02.314Z,12.30
2022-11-14T08:13:32.788Z,12.60
2022-11-14T08:16:09.097Z,11.33
2022-11-14T08:18:37.448Z,11.20
2022-11-14T08:21:05.004Z,11.43
2022-11-14T08:23:31.458Z,11.13
2022-11-14T08:26:01.182Z,13.23
2022-11-14T08:28:28.427Z,11.60
2022-11-14T08:31:04.647Z,12.07
2022-11-14T08:33:31.620Z,14.97
2022-11-14T08:36:05.319Z,14.13
2022-11-14T08:38:33.724Z,15.40
2022-11-14T08:41:01.167Z,16.50
2022-11-14T08:43:27.842Z,16.93
2022-11-14T08:46:01.471Z,17.30
2022-11-14T08:48:30.001Z,16.33
2022-11-14T08:50:56.657Z,17.50
2022-11-14T08:53:23.254Z,16.83
2022-11-14T08:55:49.780Z,18.43
2022-11-14T08:58:16.320Z,17.90
2022-11-14T09:00:42.866Z,15.50
2022-11-14T09:03:11.765Z,17.10
2022-11-14T09:05:38.285Z,17.60
2022-11-14T09:08:04.902Z,17.83
2022-11-14T09:10:31.656Z,17.40
2022-11-14T09:12:59.335Z,18.60
2022-11-14T09:15:28.214Z,17.50
2022-11-14T09:17:56.223Z,17.13
2022-11-14T09:20:32.243Z,17.83
2022-11-14T09:23:02.052Z,17.90
2022-11-14T09:25:32.110Z,17.70
2022-11-14T09:28:03.111Z,17.20
2022-11-14T09:30:29.535Z,17.97
2022-11-14T09:33:02.104Z,19.33
2022-11-14T09:35:31.356Z,18.00
2022-11-14T09:38:06.782Z,17.23
2022-11-14T09:40:44.931Z,19.20
2022-11-14T09:43:30.466Z,17.40
2022-11-14T09:45:57.178Z,17.00
2022-11-14T09:48:30.023Z,17.43
2022-11-14T09:51:07.110Z,16.80
2022-11-14T09:53:56.636Z,16.30
2022-11-14T09:56:25.635Z,17.13
2022-11-14T09:58:54.990Z,14.70
2022-11-14T10:01:33.711Z,19.30
2022-11-14T10:04:36.494Z,13.90
2022-11-14T10:07:21.865Z,12.30
2022-11-14T10:09:58.822Z,13.80
2022-11-14T10:12:51.299Z,12.20
2022-11-14T10:15:23.978Z,13.43
2022-11-14T10:18:19.867Z,20.10
2022-11-14T10:20:56.088Z,15.73
2022-11-14T10:23:47.253Z,13.67
2022-11-14T10:26:33.069Z,20.27
2022-11-14T10:29:19.440Z,10.50
2022-11-14T10:32:04.078Z,10.60
2022-11-14T10:34:36.251Z,12.43
2022-11-14T10:37:18.534Z,9.30
2022-11-14T10:39:51.415Z,9.97
2022-11-14T10:42:28.334Z,9.30
2022-11-14T10:45:07.503Z,9.40
2022-11-14T10:47:40.904Z,10.20
2022-11-14T10:50:37.864Z,10.93
2022-11-14T10:53:18.189Z,11.40
2022-11-14T10:56:03.610Z,11.73
2022-11-14T10:58:31.214Z,12.47
2022-11-14T11:01:36.779Z,13.40
2022-11-14T11:04:21.662Z,14.40
2022-11-14T11:06:49.883Z,13.27
2022-11-14T11:09:55.424Z,13.87
2022-11-14T11:12:24.772Z,12.87
2022-11-14T11:15:09.872Z,12.23
2022-11-14T11:17:42.783Z,13.60
2022-11-14T11:20:27.357Z,13.23
2022-11-14T11:23:09.878Z,15.37
2022-11-14T11:25:38.226Z,12.00
2022-11-14T11:28:13.431Z,13.87
2022-11-14T11:30:40.798Z,13.63
2022-11-14T11:33:38.107Z,13.10
2022-11-14T11:36:10.821Z,13.80
2022-11-14T11:38:37.291Z,14.87
2022-11-14T11:42:07.170Z,13.37
2022-11-14T11:44:19.891Z,14.97
2022-11-14T11:46:57.544Z,14.40
2022-11-14T11:49:38.937Z,13.50
2022-11-14T11:52:13.085Z,14.00
2022-11-14T11:54:53.999Z,13.97
2022-11-14T11:57:28.265Z,15.37
2022-11-14T12:00:23.535Z,14.13
2022-11-14T12:02:52.929Z,13.13
2022-11-14T12:05:41.983Z,13.83
2022-11-14T12:08:26.717Z,14.30
2022-11-14T12:10:54.159Z,13.63
2022-11-14T12:13:26.909Z,12.80
2022-11-14T12:16:25.224Z,13.80
2022-11-14T12:18:57.582Z,12.97
2022-11-14T12:22:21.302Z,13.40
2022-11-14T12:24:56.411Z,13.60
2022-11-14T12:27:25.666Z,13.30
2022-11-14T12:30:08.818Z,14.20
2022-11-14T12:32:43.632Z,13.20
2022-11-14T12:35:20.714Z,12.67
2022-11-14T12:37:55.221Z,12.33
2022-11-14T12:40:26.975Z,12.43
2022-11-14T12:42:53.598Z,14.40
2022-11-14T12:45:42.891Z,14.47
2022-11-14T12:48:15.102Z,11.73
2022-11-14T12:50:43.171Z,12.43
2022-11-14T12:53:37.534Z,12.77
2022-11-14T12:56:28.867Z,11.10
2022-11-14T12:59:37.174Z,13.20
2022-11-14T13:02:26.815Z,11.77
2022-11-14T13:05:12.020Z,13.10
2022-11-14T13:08:07.741Z,12.37
2022-11-14T13:10:39.728Z,13.30
2022-11-14T13:13:30.605Z,13.30
2022-11-14T13:16:17.495Z,14.43
2022-11-14T13:19:19.627Z,12.97
2022-11-14T13:22:10.850Z,13.83
2022-11-14T13:24:57.514Z,14.20
2022-11-14T13:27:52.235Z,14.40
2022-11-14T13:30:16.491Z,14.20
2022-11-14T13:32:42.864Z,14.43
2022-11-14T13:35:18.476Z,14.20
2022-11-14T13:37:56.902Z,14.20
2022-11-14T13:40:33.074Z,13.23
2022-11-14T13:43:12.750Z,14.10
2022-11-14T13:45:50.722Z,13.80
2022-11-14T13:48:26.205Z,13.90
2022-11-14T13:51:10.247Z,14.07
2022-11-14T13:53:45.938Z,14.20
2022-11-14T13:56:36.657Z,13.90
2022-11-14T13:59:30.633Z,12.07
2022-11-14T14:02:15.468Z,14.80
2022-11-14T14:05:35.841Z,13.93
2022-11-14T14:08:24.126Z,14.40
2022-11-14T14:10:53.471Z,13.50
2022-11-14T14:13:43.421Z,13.43
2022-11-14T14:16:34.264Z,12.50
2022-11-14T14:19:12.944Z,12.27
2022-11-14T14:22:08.477Z,11.93
2022-11-14T14:24:51.350Z,13.07
2022-11-14T14:27:37.735Z,12.60
2022-11-14T14:30:11.099Z,12.40
2022-11-14T14:32:37.944Z,12.30
2022-11-14T14:35:25.140Z,13.07
2022-11-14T14:37:53.752Z,12.67
2022-11-14T14:40:26.540Z,13.80
2022-11-14T14:42:54.496Z,14.07
2022-11-14T14:45:23.670Z,11.87
2022-11-14T14:47:59.554Z,13.50
2022-11-14T14:50:39.971Z,13.97
2022-11-14T14:53:07.046Z,12.90
2022-11-14T14:55:36.146Z,13.30
2022-11-14T14:58:27.688Z,13.40
2022-11-14T15:01:14.992Z,13.53
2022-11-14T15:03:48.907Z,13.40
2022-11-14T15:06:29.889Z,14.70
2022-11-14T15:08:59.644Z,12.63
2022-11-14T15:11:32.243Z,13.80
2022-11-14T15:14:00.310Z,14.07
2022-11-14T15:16:28.344Z,14.10
2022-11-14T15:18:56.710Z,14.40
2022-11-14T15:21:28.553Z,14.33
2022-11-14T15:24:12.478Z,14.07
2022-11-14T15:26:39.081Z,14.53
2022-11-14T15:29:07.836Z,14.10
2022-11-14T15:31:36.005Z,14.80
2022-11-14T15:34:32.902Z,15.13
2022-11-14T15:37:14.601Z,14.73
2022-11-14T15:39:41.985Z,14.43
2022-11-14T15:42:23.478Z,13.63
2022-11-14T15:44:50.843Z,14.40
2022-11-14T15:47:36.744Z,14.70
2022-11-14T15:50:05.446Z,13.63
2022-11-14T15:52:49.160Z,14.90
2022-11-14T15:55:21.164Z,13.80
2022-11-14T15:57:51.989Z,13.73
2022-11-14T16:00:27.254Z,15.10
2022-11-14T16:02:57.050Z,13.00
2022-11-14T16:05:29.326Z,15.17
2022-11-14T16:07:56.554Z,13.97
2022-11-14T16:10:27.610Z,14.80
2022-11-14T16:12:54.333Z,14.43
2022-11-14T16:15:21.345Z,15.40
2022-11-14T16:17:50.066Z,14.77
2022-11-14T16:20:20.817Z,14.40
2022-11-14T16:22:49.002Z,15.00
2022-11-14T16:25:24.075Z,15.73
2022-11-14T16:27:50.513Z,16.07
2022-11-14T16:30:18.899Z,15.07
2022-11-14T16:32:47.758Z,13.73
2022-11-14T16:35:20.114Z,14.43
2022-11-14T16:37:47.553Z,13.90
2022-11-14T16:40:23.479Z,14.20
2022-11-14T16:42:50.424Z,14.00
2022-11-14T16:45:20.124Z,15.50
2022-11-14T16:47:47.629Z,13.87
2022-11-14T16:50:14.225Z,14.33
2022-11-14T16:52:40.709Z,15.83
2022-11-14T16:55:09.657Z,14.50
2022-11-14T16:57:37.177Z,13.43
2022-11-14T17:00:12.399Z,14.17
2022-11-14T17:02:42.583Z,14.27
2022-11-14T17:05:09.374Z,15.93
2022-11-14T17:07:35.835Z,13.57
2022-11-14T17:10:02.526Z,13.67
2022-11-14T17:12:29.002Z,14.30
2022-11-14T17:14:55.438Z,15.40
2022-11-14T17:17:22.129Z,14.17
2022-11-14T17:19:48.986Z,14.50
2022-11-14T17:22:17.386Z,12.43
2022-11-14T17:24:44.693Z,13.90
2022-11-14T17:27:12.895Z,13.90
2022-11-14T17:29:39.455Z,13.90
2022-11-14T17:32:05.958Z,12.87
2022-11-14T17:34:32.568Z,13.30
2022-11-14T17:36:59.108Z,12.47
2022-11-14T17:39:26.137Z,12.80
2022-11-14T17:41:52.534Z,14.27
2022-11-14T17:44:18.951Z,14.20
2022-11-14T17:46:47.667Z,14.03
2022-11-14T17:49:14.148Z,13.27
2022-11-14T17:51:40.682Z,12.80
2022-11-14T17:54:07.212Z,13.53
2022-11-14T17:56:33.750Z,13.50
2022-11-14T17:59:00.172Z,13.30
2022-11-14T18:01:26.775Z,13.40
2022-11-14T18:03:53.367Z,15.00
2022-11-14T18:06:20.987Z,13.47
2022-11-14T18:08:48.176Z,13.83
2022-11-14T18:11:17.023Z,13.23
2022-11-14T18:13:44.115Z,13.40
2022-11-14T18:16:12.795Z,12.40
2022-11-14T18:18:39.706Z,12.40
2022-11-14T18:21:08.860Z,11.83
2022-11-14T18:23:36.184Z,12.90
2022-11-14T18:26:13.614Z,13.40
2022-11-14T18:28:40.894Z,12.97
2022-11-14T18:31:10.512Z,13.77
2022-11-14T18:33:37.992Z,14.47
2022-11-14T18:36:08.780Z,13.40
2022-11-14T18:38:35.497Z,13.90
2022-11-14T18:41:03.829Z,12.00
2022-11-14T18:43:32.855Z,13.50
2022-11-14T18:46:12.719Z,12.50
2022-11-14T18:48:40.591Z,13.40
2022-11-14T18:51:11.027Z,12.97
2022-11-14T18:53:37.573Z,13.47
2022-11-14T18:56:05.830Z,12.20
2022-11-14T18:58:32.936Z,12.43
2022-11-14T19:01:21.819Z,12.00
2022-11-14T19:03:48.325Z,11.90
2022-11-14T19:06:15.216Z,11.33
2022-11-14T19:08:41.824Z,11.63
2022-11-14T19:11:31.596Z,11.20
2022-11-14T19:14:01.230Z,11.20
2022-11-14T19:16:28.141Z,11.17
2022-11-14T19:18:55.345Z,12.83
2022-11-14T19:21:21.839Z,12.60
2022-11-14T19:23:48.471Z,12.23
2022-11-14T19:26:14.872Z,12.60
2022-11-14T19:28:41.305Z,12.00
2022-11-14T19:31:08.256Z,11.73
2022-11-14T19:33:35.055Z,11.50
2022-11-14T19:36:06.662Z,13.27
2022-11-14T19:38:33.444Z,12.47
2022-11-14T19:41:26.571Z,12.80
2022-11-14T19:43:54.582Z,13.07
2022-11-14T19:46:25.313Z,12.70
2022-11-14T19:48:56.873Z,12.60
2022-11-14T19:51:24.459Z,11.93
2022-11-14T19:53:53.243Z,14.67
2022-11-14T19:56:20.765Z,15.27
2022-11-14T19:58:49.035Z,13.57
2022-11-14T20:01:21.035Z,13.87
2022-11-14T20:04:14.046Z,16.83
2022-11-14T20:06:41.599Z,13.27
2022-11-14T20:09:09.935Z,13.40
2022-11-14T20:11:36.986Z,12.10
2022-11-14T20:14:05.531Z,11.10
2022-11-14T20:16:34.708Z,20.20
2022-11-14T20:19:01.899Z,12.40
2022-11-14T20:21:30.680Z,11.00
2022-11-14T20:23:57.686Z,11.10
2022-11-14T20:26:24.670Z,12.20
2022-11-14T20:28:53.805Z,11.40
2022-11-14T20:31:23.058Z,12.07
2022-11-14T20:33:50.958Z,10.83
2022-11-14T20:36:20.694Z,11.80
2022-11-14T20:38:48.179Z,11.10
2022-11-14T20:41:15.279Z,10.67
2022-11-14T20:43:42.320Z,11.03
2022-11-14T20:46:14.547Z,12.83
2022-11-14T20:48:41.837Z,10.90
2022-11-14T20:51:14.677Z,10.97
2022-11-14T20:53:41.528Z,11.40
2022-11-14T20:56:09.087Z,11.20
2022-11-14T20:58:35.978Z,10.80
2022-11-14T21:01:02.830Z,11.20
2022-11-14T21:03:29.792Z,9.97
2022-11-14T21:05:56.679Z,10.57
2022-11-14T21:08:23.245Z,10.33
2022-11-14T21:10:50.723Z,10.50
2022-11-14T21:13:40.889Z,11.57
2022-11-14T21:16:13.002Z,11.33
2022-11-14T21:18:42.787Z,10.20
2022-11-14T21:21:17.136Z,11.60
2022-11-14T21:23:47.800Z,11.20
2022-11-14T21:26:22.784Z,10.40
2022-11-14T21:28:52.839Z,12.23
2022-11-14T21:31:27.823Z,10.03
2022-11-14T21:33:59.225Z,9.27
2022-11-14T21:39:15.048Z,9.57
2022-11-14T21:41:48.400Z,9.77
2022-11-14T21:44:18.551Z,10.20
2022-11-14T21:46:48.730Z,10.03
2022-11-14T21:49:15.850Z,9.10
2022-11-14T21:51:42.594Z,10.20
2022-11-14T21:54:09.791Z,9.20
2022-11-14T21:56:37.399Z,9.70
2022-11-14T21:59:16.146Z,9.40
2022-11-14T22:02:07.149Z,10.07
2022-11-14T22:04:34.552Z,9.17
2022-11-14T22:07:06.292Z,8.90
2022-11-14T22:09:33.619Z,9.20
2022-11-14T22:12:01.190Z,9.50
2022-11-14T22:14:29.320Z,9.20
2022-11-14T22:16:56.291Z,15.60
2022-11-14T22:19:23.381Z,10.23
2022-11-14T22:21:50.235Z,9.43
2022-11-14T22:24:16.765Z,9.37
2022-11-14T22:26:43.441Z,8.83
2022-11-14T22:29:10.167Z,8.83
2022-11-14T22:31:38.149Z,8.50
2022-11-14T22:34:05.518Z,8.53
2022-11-14T22:36:33.213Z,8.70
2022-11-14T22:38:59.804Z,8.67
2022-11-14T22:41:32.634Z,9.00
2022-11-14T22:44:00.204Z,8.60
2022-11-14T22:46:27.427Z,7.57
2022-11-14T22:48:54.623Z,9.40
2022-11-14T22:51:26.180Z,8.87
2022-11-14T22:53:55.158Z,8.63
2022-11-14T22:56:24.840Z,8.30
2022-11-14T22:58:51.940Z,8.60
2022-11-14T23:01:24.924Z,8.30
2022-11-14T23:04:01.021Z,8.20
2022-11-14T23:06:28.839Z,8.40
2022-11-14T23:08:55.923Z,8.20
2022-11-14T23:11:25.595Z,9.07
2022-11-14T23:13:54.255Z,8.10
2022-11-14T23:16:23.862Z,8.23
2022-11-14T23:18:51.308Z,7.70
2022-11-14T23:21:20.766Z,7.80
2022-11-14T23:23:52.758Z,8.97
2022-11-14T23:26:20.106Z,7.87
2022-11-14T23:28:46.537Z,7.43
2022-11-14T23:31:13.077Z,7.43
2022-11-14T23:33:39.516Z,7.90
2022-11-14T23:36:06.021Z,9.53
2022-11-14T23:38:32.432Z,8.37
2022-11-14T23:41:01.343Z,7.23
2022-11-14T23:43:29.294Z,6.93
2022-11-14T23:45:56.548Z,7.57
2022-11-14T23:48:23.469Z,8.17
2022-11-14T23:50:51.593Z,7.63
2022-11-14T23:53:18.071Z,6.73
2022-11-14T23:55:55.287Z,8.10
2022-11-14T23:58:23.364Z,8.60
